Time;durP1;ratioP1;P1;durP2;ratioP2;P2;SDS_P1;SDS_P2;PMS_P1;PMS_P2;Temp;Humidity;BMP_temperature;BMP_pressure;BME280_temperature;BME280_humidity;BME280_pressure;Samples;Min_cycle;Max_cycle;Signal;HPM_P1;HPM_P2
2023/02/15 00:01:10;;;;;;;;;;;;;;;-2.62;92.32;94476.97;5010666;28;20385;-48
2023/02/15 00:03:36;;;;;;;;;;;;;;;-2.60;92.47;94482.69;5009938;28;19928;-48
2023/02/15 00:06:01;;;;;;;;;;;;;;;-2.64;92.77;94474.69;5010702;28;20368;-49
2023/02/15 00:08:27;;;;;;;;;;;;;;;-2.60;92.52;94482.69;5010938;28;20007;-48
2023/02/15 00:10:52;;;;;;;;;;;;;;;-2.55;92.66;94484.81;5010854;28;19913;-47
2023/02/15 00:13:17;;;;;;;;;;;;;;;-2.49;92.61;94480.38;5010967;28;20345;-48
2023/02/15 00:15:42;;;;;;;;;;;;;;;-2.30;92.90;94484.72;5023857;28;19920;-48
2023/02/15 00:18:08;;;;;;;;;;;;;;;-2.42;92.18;94485.50;5030622;28;19921;-47
2023/02/15 00:20:33;;;;;;;;;;;;;;;-2.47;92.47;94484.13;5029517;28;20032;-48
2023/02/15 00:22:58;;;;;;;;;;;;;;;-2.59;92.14;94486.88;5030580;28;19924;-48
2023/02/15 00:25:24;;;;;;;;;;;;;;;-2.52;92.16;94484.72;5030279;28;20316;-49
2023/02/15 00:27:49;;;;;;;;;;;;;;;-2.63;91.78;94495.13;5013408;28;19924;-49
2023/02/15 00:30:14;;;;;;;;;;;;;;;-2.66;91.89;94485.19;5010781;28;19920;-48
2023/02/15 00:32:39;;;;;;;;;;;;;;;-2.59;91.52;94482.25;5013602;28;19917;-49
2023/02/15 00:35:06;;;;;;;;;;;;;;;-2.51;91.68;94494.31;5030194;28;19925;-49
2023/02/15 00:37:31;;;;;;;;;;;;;;;-2.67;91.70;94501.84;5030056;28;19947;-48
2023/02/15 00:39:57;;;;;;;;;;;;;;;-2.61;92.82;94491.97;5021877;28;19917;-49
2023/02/15 00:42:22;;;;;;;;;;;;;;;-2.59;93.29;94486.88;5010321;28;20419;-49
2023/02/15 00:44:47;;;;;;;;;;;;;;;-2.58;93.36;94483.00;5010241;28;20027;-48
2023/02/15 00:47:13;;;;;;;;;;;;;;;-2.68;93.17;94478.72;5010333;28;19924;-51
2023/02/15 00:49:38;;;;;;;;;;;;;;;-2.69;93.07;94488.03;5010390;28;19917;-50
2023/02/15 00:52:03;;;;;;;;;;;;;;;-2.95;92.11;94476.56;5009865;28;20337;-48
2023/02/15 00:54:28;;;;;;;;;;;;;;;-2.95;91.88;94475.78;5010171;28;19921;-51
2023/02/15 00:56:54;;;;;;;;;;;;;;;-3.02;92.14;94476.00;5010086;28;19928;-50
2023/02/15 00:59:19;;;;;;;;;;;;;;;-2.96;92.19;94479.66;5010080;28;19921;-51
2023/02/15 01:01:44;;;;;;;;;;;;;;;-3.19;92.56;94478.13;5009867;28;19918;-49
2023/02/15 01:04:09;;;;;;;;;;;;;;;-3.23;93.44;94480.19;5010230;28;19960;-51
2023/02/15 01:06:35;;;;;;;;;;;;;;;-3.13;93.75;94479.06;5010190;28;19913;-50
2023/02/15 01:09:00;;;;;;;;;;;;;;;-3.01;93.74;94480.25;5009853;28;19913;-49
2023/02/15 01:11:25;;;;;;;;;;;;;;;-3.01;93.04;94482.94;5009902;28;19921;-50
2023/02/15 01:13:51;;;;;;;;;;;;;;;-3.16;92.21;94469.88;5009858;28;20419;-49
2023/02/15 01:16:17;;;;;;;;;;;;;;;-3.07;92.53;94464.56;5027691;28;19917;-51
2023/02/15 01:18:42;;;;;;;;;;;;;;;-3.35;92.57;94478.25;5029659;28;19924;-48
2023/02/15 01:21:11;;;;;;;;;;;;;;;-3.34;92.83;94477.06;5029305;28;19913;-48
2023/02/15 01:23:37;;;;;;;;;;;;;;;-3.26;92.83;94479.09;5029551;28;19913;-51
2023/02/15 01:26:02;;;;;;;;;;;;;;;-3.15;92.77;94470.66;5027046;28;19928;-51
2023/02/15 01:28:27;;;;;;;;;;;;;;;-3.17;93.05;94464.94;5009471;28;19924;-50
2023/02/15 01:30:52;;;;;;;;;;;;;;;-3.28;92.80;94473.38;5008923;28;19939;-49
2023/02/15 01:33:18;;;;;;;;;;;;;;;-3.41;93.17;94474.59;5016702;28;19924;-49
2023/02/15 01:35:45;;;;;;;;;;;;;;;-3.18;93.26;94474.97;5024743;28;19924;-47
2023/02/15 01:38:10;;;;;;;;;;;;;;;-3.22;93.47;94474.34;5009511;28;19921;-47
2023/02/15 01:40:35;;;;;;;;;;;;;;;-3.29;93.61;94463.75;5009242;28;19933;-48
2023/02/15 01:43:01;;;;;;;;;;;;;;;-3.35;93.80;94465.50;5009002;28;20333;-49
2023/02/15 01:45:27;;;;;;;;;;;;;;;-3.36;93.70;94468.66;5009385;28;19975;-48
2023/02/15 01:47:59;;;;;;;;;;;;;;;-3.33;93.77;94465.06;5009307;28;19924;-48
2023/02/15 01:50:34;;;;;;;;;;;;;;;-3.26;94.24;94467.53;5008842;28;19918;-48
2023/02/15 01:53:09;;;;;;;;;;;;;;;-3.04;93.77;94454.09;5007866;28;19924;-49
2023/02/15 01:55:36;;;;;;;;;;;;;;;-3.03;94.53;94458.31;5008928;28;19921;-48
2023/02/15 01:58:02;;;;;;;;;;;;;;;-3.18;94.64;94458.78;5016245;28;19925;-49
2023/02/15 02:00:27;;;;;;;;;;;;;;;-3.23;94.24;94459.31;5008690;28;20406;-48
2023/02/15 02:02:53;;;;;;;;;;;;;;;-3.18;94.05;94458.78;5007298;28;19917;-47
2023/02/15 02:05:19;;;;;;;;;;;;;;;-3.17;94.04;94459.53;5007719;28;19924;-47
2023/02/15 02:07:44;;;;;;;;;;;;;;;-3.22;93.78;94463.53;5008423;28;19917;-48
2023/02/15 02:10:11;;;;;;;;;;;;;;;-3.12;93.53;94469.78;5008853;28;20050;-47
2023/02/15 02:12:36;;;;;;;;;;;;;;;-3.11;92.49;94463.94;5008325;28;20569;-49
2023/02/15 02:15:02;;;;;;;;;;;;;;;-3.02;92.51;94465.22;5008764;28;19974;-49
2023/02/15 02:17:39;;;;;;;;;;;;;;;-3.17;93.08;94464.94;5008528;28;19917;-51
2023/02/15 02:20:09;;;;;;;;;;;;;;;-3.23;92.46;94466.69;5008460;28;19913;-50
2023/02/15 02:22:49;;;;;;;;;;;;;;;-3.26;92.78;94459.44;5007186;28;19936;-48
2023/02/15 02:25:14;;;;;;;;;;;;;;;-3.25;92.51;94456.28;5007277;28;20408;-51
2023/02/15 02:28:02;;;;;;;;;;;;;;;-3.21;93.10;94456.19;5023701;28;19917;-50
2023/02/15 02:30:46;;;;;;;;;;;;;;;-3.49;93.32;94463.28;5017223;28;19923;-49
2023/02/15 02:33:18;;;;;;;;;;;;;;;-3.50;92.57;94461.75;5009288;28;19987;-50
2023/02/15 02:36:02;;;;;;;;;;;;;;;-3.38;92.52;94460.97;5008178;28;20005;-48
2023/02/15 02:38:41;;;;;;;;;;;;;;;-3.22;93.35;94463.53;5007961;28;19917;-48
2023/02/15 02:41:25;;;;;;;;;;;;;;;-3.26;93.19;94468.31;5007048;28;19913;-48
2023/02/15 02:44:02;;;;;;;;;;;;;;;-3.41;91.99;94464.53;5007767;28;20548;-49
2023/02/15 02:46:30;;;;;;;;;;;;;;;-3.42;92.10;94473.81;5008428;28;19924;-49
2023/02/15 02:48:55;;;;;;;;;;;;;;;-3.56;92.63;94479.69;5006798;28;19990;-50
2023/02/15 02:51:22;;;;;;;;;;;;;;;-3.59;94.25;94474.38;5006471;28;20378;-50
2023/02/15 02:53:48;;;;;;;;;;;;;;;-3.63;94.39;94477.19;5008068;28;19913;-49
2023/02/15 02:56:21;;;;;;;;;;;;;;;-3.63;94.65;94473.72;5008228;28;19918;-48
2023/02/15 02:59:00;;;;;;;;;;;;;;;-3.54;94.51;94479.25;5016163;28;19924;-49
2023/02/15 03:01:33;;;;;;;;;;;;;;;-3.46;93.93;94485.91;5006481;28;20621;-49
2023/02/15 03:04:03;;;;;;;;;;;;;;;-3.31;93.15;94484.28;5006652;28;19918;-50
2023/02/15 03:06:31;;;;;;;;;;;;;;;-3.42;93.05;94484.63;5006937;28;19913;-49
2023/02/15 03:09:01;;;;;;;;;;;;;;;-3.53;93.38;94495.00;5006786;28;20263;-51
2023/02/15 03:11:27;;;;;;;;;;;;;;;-3.41;93.82;94485.38;5006392;28;20012;-49
2023/02/15 03:13:52;;;;;;;;;;;;;;;-3.38;93.92;94479.13;5006823;28;20003;-49
2023/02/15 03:16:26;;;;;;;;;;;;;;;-3.37;94.20;94489.47;5021218;28;19914;-49
2023/02/15 03:18:56;;;;;;;;;;;;;;;-3.59;94.43;94494.03;5006425;28;19929;-50
2023/02/15 03:21:24;;;;;;;;;;;;;;;-3.57;94.21;94490.91;5006617;28;20012;-51
2023/02/15 03:23:53;;;;;;;;;;;;;;;-3.49;94.51;94495.66;5006418;28;19932;-49
2023/02/15 03:26:18;;;;;;;;;;;;;;;-3.56;94.58;94493.19;5007321;28;20409;-51
2023/02/15 03:28:44;;;;;;;;;;;;;;;-3.43;94.12;94495.88;5014109;28;19948;-48
2023/02/15 03:31:10;;;;;;;;;;;;;;;-3.51;94.01;94499.97;5022126;28;19924;-51
2023/02/15 03:33:36;;;;;;;;;;;;;;;-3.51;93.85;94506.09;5006275;28;21053;-52
2023/02/15 03:36:02;;;;;;;;;;;;;;;-3.39;93.82;94497.25;5006494;28;20423;-49
2023/02/15 03:38:29;;;;;;;;;;;;;;;-3.36;93.68;94499.09;5007588;28;19925;-51
2023/02/15 03:41:10;;;;;;;;;;;;;;;-3.29;94.12;94503.53;5006298;28;19921;-51
2023/02/15 03:43:38;;;;;;;;;;;;;;;-3.45;93.42;94500.94;5006288;28;19914;-48
2023/02/15 03:46:08;;;;;;;;;;;;;;;-3.51;93.07;94506.09;5007337;28;20476;-49
2023/02/15 03:48:39;;;;;;;;;;;;;;;-3.38;92.74;94506.84;5006265;28;19918;-48
2023/02/15 03:53:49;;;;;;;;;;;;;;;-3.70;93.42;94511.75;5007466;28;19988;-51
2023/02/15 03:56:14;;;;;;;;;;;;;;;-3.52;93.36;94504.63;5008100;28;20377;-48
2023/02/15 04:01:57;;;;;;;;;;;;;;;-3.59;93.37;94521.03;5010900;28;19936;-48
2023/02/15 04:04:48;;;;;;;;;;;;;;;-3.67;94.23;94513.56;5011104;28;19925;-47
2023/02/15 04:07:13;;;;;;;;;;;;;;;-3.53;93.77;94513.88;5006777;28;19925;-50
2023/02/15 04:12:23;;;;;;;;;;;;;;;-3.58;95.27;94517.16;5011183;28;19920;-50
2023/02/15 04:17:32;;;;;;;;;;;;;;;-3.59;93.75;94534.50;5010949;28;19928;-48
2023/02/15 04:25:26;;;;;;;;;;;;;;;-3.59;94.04;94545.31;5022375;28;19943;-50
2023/02/15 04:27:52;;;;;;;;;;;;;;;-3.55;93.90;94543.25;5013189;28;20389;-52
2023/02/15 04:30:18;;;;;;;;;;;;;;;-3.63;93.85;94547.38;5009301;28;19933;-51
2023/02/15 04:32:44;;;;;;;;;;;;;;;-3.65;94.53;94548.97;5021228;28;20412;-52
2023/02/15 04:35:09;;;;;;;;;;;;;;;-3.67;94.62;94552.13;5010301;28;19925;-48
2023/02/15 04:37:35;;;;;;;;;;;;;;;-3.62;94.89;94556.97;5010453;28;19922;-49
2023/02/15 04:40:00;;;;;;;;;;;;;;;-3.50;94.46;94550.06;5010393;28;20348;-48
2023/02/15 04:42:25;;;;;;;;;;;;;;;-3.59;93.97;94548.00;5010197;28;19933;-48
2023/02/15 04:44:51;;;;;;;;;;;;;;;-3.51;94.01;94552.00;5010586;28;19917;-48
2023/02/15 04:47:16;;;;;;;;;;;;;;;-3.51;94.01;94562.78;5010431;28;19971;-49
2023/02/15 04:49:42;;;;;;;;;;;;;;;-3.58;94.31;94564.97;5010488;28;20424;-50
2023/02/15 04:52:07;;;;;;;;;;;;;;;-3.52;93.96;94553.19;5010362;28;19914;-48
2023/02/15 04:54:32;;;;;;;;;;;;;;;-3.66;93.94;94563.66;5010501;28;19914;-49
2023/02/15 04:56:58;;;;;;;;;;;;;;;-3.46;94.30;94561.50;5013356;28;19921;-52
2023/02/15 04:59:23;;;;;;;;;;;;;;;-3.60;93.94;94559.25;5015239;28;19914;-52
2023/02/15 05:01:48;;;;;;;;;;;;;;;-3.49;94.37;94557.75;5010152;28;19948;-51
2023/02/15 05:04:13;;;;;;;;;;;;;;;-3.40;93.67;94555.13;5010343;28;19924;-49
2023/02/15 05:06:39;;;;;;;;;;;;;;;-3.28;93.82;94553.63;5010363;28;20547;-49
2023/02/15 05:09:04;;;;;;;;;;;;;;;-3.18;93.04;94556.00;5009959;28;20388;-47
2023/02/15 05:11:29;;;;;;;;;;;;;;;-3.16;93.53;94556.31;5010249;28;20369;-52
2023/02/15 05:13:55;;;;;;;;;;;;;;;-3.14;94.34;94556.63;5009884;28;19917;-49
2023/02/15 05:16:20;;;;;;;;;;;;;;;-3.12;94.99;94564.31;5009659;28;19920;-48
2023/02/15 05:18:45;;;;;;;;;;;;;;;-3.02;94.95;94567.88;5009807;28;20012;-50
2023/02/15 05:21:10;;;;;;;;;;;;;;;-2.91;94.75;94562.88;5017481;28;20025;-52
2023/02/15 05:23:36;;;;;;;;;;;;;;;-2.91;93.49;94579.84;5029408;28;20420;-51
2023/02/15 05:28:46;;;;;;;;;;;;;;;-2.86;93.48;94587.41;5009439;28;20320;-51
2023/02/15 05:31:12;;;;;;;;;;;;;;;-2.68;92.76;94586.81;5009379;28;19921;-49
2023/02/15 05:33:38;;;;;;;;;;;;;;;-2.62;91.93;94591.25;5010010;28;19922;-50
2023/02/15 05:36:03;;;;;;;;;;;;;;;-2.87;92.02;94591.31;5009487;28;20369;-49
2023/02/15 05:38:28;;;;;;;;;;;;;;;-2.76;92.90;94597.13;5009522;28;19952;-51
2023/02/15 05:40:54;;;;;;;;;;;;;;;-2.67;91.80;94591.81;5009396;28;20341;-50
2023/02/15 05:43:19;;;;;;;;;;;;;;;-2.54;91.73;94591.78;5009390;28;20496;-51
2023/02/15 05:45:45;;;;;;;;;;;;;;;-2.55;91.01;94591.00;5009232;28;19954;-48
2023/02/15 05:48:11;;;;;;;;;;;;;;;-2.69;91.95;94590.72;5009231;28;19925;-48
2023/02/15 05:50:36;;;;;;;;;;;;;;;-2.87;92.63;94602.09;5009309;28;19925;-48
2023/02/15 05:53:01;;;;;;;;;;;;;;;-2.86;93.18;94602.88;5009110;28;20436;-49
2023/02/15 05:55:27;;;;;;;;;;;;;;;-2.68;93.07;94598.41;5008980;28;19917;-50
2023/02/15 05:57:52;;;;;;;;;;;;;;;-2.61;93.13;94606.28;5011127;28;20521;-48
2023/02/15 06:00:17;;;;;;;;;;;;;;;-2.64;93.47;94607.13;5028850;28;19913;-49
2023/02/15 06:02:43;;;;;;;;;;;;;;;-2.48;93.05;94612.41;5028220;28;19967;-48
2023/02/15 06:05:08;;;;;;;;;;;;;;;-2.34;92.41;94617.34;5028694;28;19913;-49
2023/02/15 06:07:33;;;;;;;;;;;;;;;-2.25;92.10;94613.22;5028441;28;20361;-52
2023/02/15 06:09:59;;;;;;;;;;;;;;;-2.17;91.78;94606.38;5028260;28;19913;-50
2023/02/15 06:12:24;;;;;;;;;;;;;;;-2.15;90.99;94610.16;5028454;28;19917;-49
2023/02/15 06:14:49;;;;;;;;;;;;;;;-2.25;91.15;94605.84;5022125;28;20020;-49
2023/02/15 06:17:16;;;;;;;;;;;;;;;-2.13;91.34;94610.47;5014465;28;19941;-49
2023/02/15 06:19:41;;;;;;;;;;;;;;;-2.12;91.39;94601.13;5027503;28;20455;-52
2023/02/15 06:22:07;;;;;;;;;;;;;;;-2.06;91.13;94609.47;5027858;28;19917;-48
2023/02/15 06:24:32;;;;;;;;;;;;;;;-1.88;90.53;94613.06;5028404;28;19920;-50
2023/02/15 06:26:58;;;;;;;;;;;;;;;-1.82;89.81;94605.13;5018655;28;19917;-49
2023/02/15 06:29:23;;;;;;;;;;;;;;;-1.67;89.04;94609.59;5008032;28;20000;-50
2023/02/15 06:31:48;;;;;;;;;;;;;;;-1.49;88.02;94606.22;5017057;28;19913;-47
2023/02/15 06:34:13;;;;;;;;;;;;;;;-1.35;87.96;94604.97;5011556;28;20010;-52
2023/02/15 06:36:39;;;;;;;;;;;;;;;-1.10;87.07;94600.09;5007854;28;19918;-48
2023/02/15 06:39:04;;;;;;;;;;;;;;;-0.98;86.71;94595.78;5008092;28;20378;-51
2023/02/15 06:41:29;;;;;;;;;;;;;;;-0.60;85.01;94593.47;5008358;28;19924;-48
2023/02/15 06:43:55;;;;;;;;;;;;;;;-0.61;84.66;94602.06;5007838;28;19917;-50
2023/02/15 06:46:20;;;;;;;;;;;;;;;-0.55;84.58;94602.97;5007961;28;19924;-49
2023/02/15 06:48:45;;;;;;;;;;;;;;;-0.55;84.27;94598.31;5008229;28;19918;-53
2023/02/15 06:51:11;;;;;;;;;;;;;;;-0.56;84.62;94598.78;5007660;28;20012;-49
2023/02/15 06:53:36;;;;;;;;;;;;;;;-0.07;83.93;94594.00;5008259;28;19917;-48
2023/02/15 06:56:06;;;;;;;;;;;;;;;0.78;80.80;94596.44;5007862;28;19918;-48
2023/02/15 06:58:49;;;;;;;;;;;;;;;1.85;75.59;94590.16;5015735;28;19922;-48
2023/02/15 07:01:15;;;;;;;;;;;;;;;2.46;72.21;94592.09;5008118;28;20313;-49
2023/02/15 07:03:40;;;;;;;;;;;;;;;3.14;69.22;94594.69;5007698;28;19925;-49
2023/02/15 07:06:08;;;;;;;;;;;;;;;3.93;65.31;94598.78;5007764;28;19964;-48
2023/02/15 07:08:33;;;;;;;;;;;;;;;4.68;62.68;94590.44;5008047;28;19918;-50
2023/02/15 07:12:40;;;;;;;;;;;;;;;4.85;61.61;94594.06;5008019;28;19925;-49
2023/02/15 07:13:43;;;;;;;;;;;;;;;5.12;60.61;94595.53;5015833;28;19928;-50
2023/02/15 07:16:09;;;;;;;;;;;;;;;6.14;57.29;94589.00;5010729;28;19918;-49
2023/02/15 07:18:34;;;;;;;;;;;;;;;7.69;52.04;94585.69;5007745;28;19929;-50
2023/02/15 07:21:00;;;;;;;;;;;;;;;9.17;49.50;94594.56;5006492;28;20478;-52
2023/02/15 07:23:25;;;;;;;;;;;;;;;9.96;46.17;94596.16;5007884;28;19918;-50
2023/02/15 07:25:56;;;;;;;;;;;;;;;10.94;43.38;94591.97;5008205;28;20532;-53
2023/02/15 07:28:21;;;;;;;;;;;;;;;11.36;42.11;94591.84;5027409;28;19913;-53
2023/02/15 07:30:47;;;;;;;;;;;;;;;12.15;39.59;94589.25;5028412;28;19921;-52
2023/02/15 07:33:26;;;;;;;;;;;;;;;12.41;40.33;94591.31;5021490;28;19918;-52
2023/02/15 07:35:59;;;;;;;;;;;;;;;12.44;38.20;94595.78;5011525;28;20377;-53
2023/02/15 07:38:25;;;;;;;;;;;;;;;13.49;38.03;94588.00;5011485;28;19932;-52
2023/02/15 07:40:51;;;;;;;;;;;;;;;12.60;38.07;94591.94;5011642;28;19929;-52
2023/02/15 07:43:16;;;;;;;;;;;;;;;13.98;36.55;94593.59;5011634;28;19918;-51
2023/02/15 07:45:41;;;;;;;;;;;;;;;14.85;33.97;94584.16;5011572;28;19999;-53
2023/02/15 07:48:07;;;;;;;;;;;;;;;15.00;32.94;94591.81;5011470;28;19922;-52
2023/02/15 07:50:32;;;;;;;;;;;;;;;14.59;33.44;94589.97;5011191;28;19924;-52
2023/02/15 07:52:58;;;;;;;;;;;;;;;14.02;33.53;94593.97;5011352;28;19917;-51
2023/02/15 07:55:24;;;;;;;;;;;;;;;15.20;33.52;94590.97;5011139;28;20374;-53
2023/02/15 07:57:50;;;;;;;;;;;;;;;14.91;33.59;94597.88;5019488;28;19968;-54
2023/02/15 08:00:16;;;;;;;;;;;;;;;13.99;33.67;94586.75;5011295;28;20006;-52
2023/02/15 08:02:42;;;;;;;;;;;;;;;15.17;32.89;94587.25;5010881;28;19918;-51
2023/02/15 08:05:07;;;;;;;;;;;;;;;16.38;31.45;94595.72;5010709;28;20000;-52
2023/02/15 08:07:32;;;;;;;;;;;;;;;16.38;30.60;94592.19;5011064;28;19918;-53
2023/02/15 08:09:59;;;;;;;;;;;;;;;16.06;31.75;94592.03;5018826;28;20429;-52
2023/02/15 08:12:26;;;;;;;;;;;;;;;15.72;32.67;94589.63;5030301;28;19917;-53
2023/02/15 08:14:51;;;;;;;;;;;;;;;15.57;32.06;94579.19;5024395;28;19925;-53
2023/02/15 08:17:16;;;;;;;;;;;;;;;15.80;31.88;94584.78;5010663;28;19922;-53
2023/02/15 08:19:41;;;;;;;;;;;;;;;16.63;29.80;94570.81;5010743;28;19944;-53
2023/02/15 08:22:10;;;;;;;;;;;;;;;15.90;31.41;94582.94;5010792;28;19914;-52
2023/02/15 08:24:39;;;;;;;;;;;;;;;16.20;31.19;94585.00;5009325;28;19917;-52
2023/02/15 08:27:05;;;;;;;;;;;;;;;16.46;30.35;94582.53;5010275;28;20016;-52
2023/02/15 08:29:30;;;;;;;;;;;;;;;16.60;30.24;94580.28;5010465;28;20629;-52
2023/02/15 08:32:02;;;;;;;;;;;;;;;16.58;30.90;94583.66;5020087;28;19917;-52
2023/02/15 08:34:27;;;;;;;;;;;;;;;16.15;29.89;94583.88;5010312;28;19925;-52
2023/02/15 08:36:53;;;;;;;;;;;;;;;17.08;29.86;94573.44;5010404;28;20324;-51
2023/02/15 08:39:18;;;;;;;;;;;;;;;17.89;28.60;94574.84;5010482;28;19917;-52
2023/02/15 08:41:44;;;;;;;;;;;;;;;17.58;28.75;94581.97;5009975;28;20353;-52
2023/02/15 08:44:10;;;;;;;;;;;;;;;18.04;27.59;94581.06;5010269;28;19913;-51
2023/02/15 08:46:40;;;;;;;;;;;;;;;17.56;29.25;94581.78;5009040;28;20406;-53
2023/02/15 08:49:05;;;;;;;;;;;;;;;17.25;29.62;94584.72;5010205;28;19918;-51
2023/02/15 08:51:32;;;;;;;;;;;;;;;16.99;29.38;94588.00;5010232;28;19997;-50
2023/02/15 08:53:58;;;;;;;;;;;;;;;17.73;28.24;94585.41;5010227;28;19917;-53
2023/02/15 08:56:27;;;;;;;;;;;;;;;16.02;30.91;94592.41;5009859;28;19924;-52
2023/02/15 08:58:53;;;;;;;;;;;;;;;16.86;29.40;94590.25;5009865;28;19924;-52
2023/02/15 09:01:22;;;;;;;;;;;;;;;17.65;28.90;94607.03;5010051;28;19917;-51
2023/02/15 09:03:49;;;;;;;;;;;;;;;17.78;29.27;94600.47;5010230;28;20028;-53
2023/02/15 09:06:14;;;;;;;;;;;;;;;17.41;29.41;94604.94;5009655;28;19926;-50
2023/02/15 09:08:40;;;;;;;;;;;;;;;17.49;29.49;94599.28;5009851;28;19923;-52
2023/02/15 09:11:08;;;;;;;;;;;;;;;16.90;29.60;94596.19;5010016;28;19917;-51
2023/02/15 09:13:33;;;;;;;;;;;;;;;17.90;28.76;94593.84;5009747;28;19951;-49
2023/02/15 09:16:02;;;;;;;;;;;;;;;18.48;27.86;94588.91;5025197;28;20455;-50
2023/02/15 09:18:29;;;;;;;;;;;;;;;19.12;27.05;94585.81;5029614;28;20328;-49
2023/02/15 09:20:55;;;;;;;;;;;;;;;18.09;27.93;94591.28;5029435;28;19917;-52
2023/02/15 09:23:20;;;;;;;;;;;;;;;18.96;26.40;94592.16;5029610;28;19917;-51
2023/02/15 09:25:46;;;;;;;;;;;;;;;18.64;26.96;94593.81;5029288;28;20333;-49
2023/02/15 09:28:11;;;;;;;;;;;;;;;18.26;27.62;94587.78;5009431;28;19970;-49
2023/02/15 09:30:36;;;;;;;;;;;;;;;18.56;27.44;94587.53;5009635;28;20397;-48
2023/02/15 09:33:02;;;;;;;;;;;;;;;17.98;28.64;94583.34;5015274;28;19917;-49
2023/02/15 09:35:27;;;;;;;;;;;;;;;17.63;28.77;94586.59;5028780;28;19932;-50
2023/02/15 09:37:53;;;;;;;;;;;;;;;18.19;28.06;94574.63;5028838;28;19924;-49
2023/02/15 09:40:18;;;;;;;;;;;;;;;18.29;28.46;94588.69;5029377;28;19924;-48
2023/02/15 09:42:43;;;;;;;;;;;;;;;19.05;27.18;94575.44;5027399;28;19960;-50
2023/02/15 09:45:15;;;;;;;;;;;;;;;18.96;26.96;94576.09;5029082;28;19917;-49
2023/02/15 09:47:59;;;;;;;;;;;;;;;18.09;28.62;94582.16;5029006;28;19917;-48
2023/02/15 09:50:30;;;;;;;;;;;;;;;19.63;26.85;94580.13;5028839;28;20428;-50
2023/02/15 09:52:59;;;;;;;;;;;;;;;17.85;27.67;94577.31;5027985;28;19913;-51
2023/02/15 09:55:51;;;;;;;;;;;;;;;19.36;26.62;94567.44;5028640;28;19920;-50
2023/02/15 09:58:22;;;;;;;;;;;;;;;18.78;27.49;94574.63;5011071;28;19922;-50
2023/02/15 10:00:50;;;;;;;;;;;;;;;19.48;26.15;94580.34;5009117;28;20427;-50
2023/02/15 10:03:21;;;;;;;;;;;;;;;18.84;27.97;94581.47;5023182;28;19917;-49
2023/02/15 10:05:53;;;;;;;;;;;;;;;17.56;29.03;94568.56;5028725;28;19939;-49
2023/02/15 10:08:26;;;;;;;;;;;;;;;17.77;29.55;94571.78;5028066;28;19952;-50
2023/02/15 10:10:51;;;;;;;;;;;;;;;18.51;28.48;94574.53;5028769;28;19923;-49
2023/02/15 10:13:17;;;;;;;;;;;;;;;18.23;28.72;94572.16;5028081;28;19917;-48
2023/02/15 10:15:57;;;;;;;;;;;;;;;18.91;26.76;94568.69;5028076;28;19958;-50
2023/02/15 10:18:23;;;;;;;;;;;;;;;18.61;27.03;94569.03;5028381;28;19921;-51
2023/02/15 10:21:02;;;;;;;;;;;;;;;17.82;29.38;94570.06;5026680;28;20668;-48
2023/02/15 10:23:36;;;;;;;;;;;;;;;16.27;31.25;94568.25;5028427;28;19920;-50
2023/02/15 10:26:11;;;;;;;;;;;;;;;17.89;28.67;94564.41;5026440;28;19913;-52
2023/02/15 10:28:36;;;;;;;;;;;;;;;17.29;29.03;94559.94;5007413;28;20028;-48
2023/02/15 10:31:12;;;;;;;;;;;;;;;18.11;28.24;94554.38;5008411;28;20378;-50
2023/02/15 10:33:37;;;;;;;;;;;;;;;17.39;28.62;94552.44;5008664;28;19925;-50
2023/02/15 10:36:16;;;;;;;;;;;;;;;15.96;31.54;94557.69;5008607;28;19917;-49
2023/02/15 10:38:51;;;;;;;;;;;;;;;16.93;30.33;94544.88;5008365;28;19925;-50
2023/02/15 10:41:26;;;;;;;;;;;;;;;17.48;29.85;94551.09;5008040;28;19960;-50
2023/02/15 10:43:51;;;;;;;;;;;;;;;17.54;30.15;94536.94;5006717;28;19917;-51
2023/02/15 10:46:37;;;;;;;;;;;;;;;17.52;29.54;94539.56;5008151;28;19917;-49
2023/02/15 10:49:15;;;;;;;;;;;;;;;18.30;29.31;94534.28;5006810;28;19914;-50
2023/02/15 10:51:59;;;;;;;;;;;;;;;16.30;31.04;94536.47;5008262;28;20377;-50
2023/02/15 10:54:28;;;;;;;;;;;;;;;16.98;29.96;94538.34;5007658;28;20389;-51
2023/02/15 10:57:02;;;;;;;;;;;;;;;16.04;32.24;94541.72;5006419;28;19921;-49
2023/02/15 11:00:00;;;;;;;;;;;;;;;15.47;32.20;94546.88;5007473;28;19971;-50
2023/02/15 11:02:31;;;;;;;;;;;;;;;14.03;34.72;94551.81;4984798;28;20015;-50
2023/02/15 11:05:08;;;;;;;;;;;;;;;13.38;36.94;94552.19;5006250;28;19918;-50
2023/02/15 11:07:35;;;;;;;;;;;;;;;13.34;37.06;94549.72;5006397;28;19921;-49
2023/02/15 11:10:23;;;;;;;;;;;;;;;13.85;36.47;94552.03;5006661;28;19917;-48
2023/02/15 11:12:48;;;;;;;;;;;;;;;15.25;34.08;94547.56;5006543;28;20435;-49
2023/02/15 11:15:21;;;;;;;;;;;;;;;15.36;33.84;94538.84;5006308;28;19949;-48
2023/02/15 11:17:50;;;;;;;;;;;;;;;14.94;34.78;94547.47;5006358;28;19921;-50
2023/02/15 11:20:21;;;;;;;;;;;;;;;16.07;31.94;94538.53;5006488;28;19953;-50
2023/02/15 11:22:48;;;;;;;;;;;;;;;16.03;32.83;94540.97;5007796;28;19917;-49
2023/02/15 11:25:24;;;;;;;;;;;;;;;15.39;33.53;94534.97;5006640;28;19920;-49
2023/02/15 11:27:49;;;;;;;;;;;;;;;15.47;32.78;94538.53;5006520;28;19920;-48
2023/02/15 11:30:35;;;;;;;;;;;;;;;16.13;31.55;94527.22;5007689;28;19949;-50
2023/02/15 11:33:01;;;;;;;;;;;;;;;16.14;31.85;94525.91;5012103;28;19925;-49
2023/02/15 11:35:28;;;;;;;;;;;;;;;17.05;31.00;94527.13;5006134;28;19921;-49
2023/02/15 11:37:59;;;;;;;;;;;;;;;16.25;31.77;94528.31;5007463;28;19918;-48
2023/02/15 11:40:28;;;;;;;;;;;;;;;15.79;32.38;94522.78;5007241;28;19923;-49
2023/02/15 11:42:55;;;;;;;;;;;;;;;15.58;32.86;94524.25;5007461;28;19917;-50
2023/02/15 11:45:30;;;;;;;;;;;;;;;15.77;32.99;94521.84;5006116;28;19917;-52
2023/02/15 11:47:56;;;;;;;;;;;;;;;14.94;34.01;94518.94;5006100;28;19918;-49
2023/02/15 11:50:22;;;;;;;;;;;;;;;15.19;33.54;94520.66;5007265;28;19987;-53
2023/02/15 11:52:49;;;;;;;;;;;;;;;15.40;34.03;94517.00;5007650;28;19918;-48
2023/02/15 11:55:16;;;;;;;;;;;;;;;15.00;34.09;94513.94;5016272;28;19973;-50
2023/02/15 11:57:42;;;;;;;;;;;;;;;14.98;34.50;94510.97;5022124;28;20024;-50
2023/02/15 12:00:11;;;;;;;;;;;;;;;14.66;34.44;94511.41;5007223;28;19968;-50
2023/02/15 12:02:37;;;;;;;;;;;;;;;15.34;33.77;94508.81;5006204;28;20001;-48
2023/02/15 12:05:08;;;;;;;;;;;;;;;14.89;33.99;94508.72;5006021;28;20016;-49
2023/02/15 12:07:37;;;;;;;;;;;;;;;14.53;35.38;94508.75;5006319;28;19976;-48
2023/02/15 12:10:21;;;;;;;;;;;;;;;13.95;36.34;94508.59;5005865;28;20377;-51
2023/02/15 12:12:47;;;;;;;;;;;;;;;13.38;37.45;94491.88;5007449;28;20321;-48
2023/02/15 12:15:12;;;;;;;;;;;;;;;13.77;36.08;94501.28;5007266;28;19917;-49
2023/02/15 12:17:39;;;;;;;;;;;;;;;13.44;36.79;94498.06;5010092;28;19924;-50
2023/02/15 12:20:07;;;;;;;;;;;;;;;14.23;36.05;94498.22;5009664;28;19917;-48
2023/02/15 12:22:33;;;;;;;;;;;;;;;13.99;36.55;94495.84;5009686;28;20088;-48
2023/02/15 12:25:03;;;;;;;;;;;;;;;13.86;36.02;94495.22;5010745;28;19924;-49
2023/02/15 12:27:29;;;;;;;;;;;;;;;13.31;37.37;94491.84;5024551;28;19921;-49
2023/02/15 12:29:55;;;;;;;;;;;;;;;13.19;38.47;94490.63;5030169;28;19913;-48
2023/02/15 12:32:28;;;;;;;;;;;;;;;13.03;37.95;94481.38;5029181;28;19920;-50
2023/02/15 12:35:14;;;;;;;;;;;;;;;12.83;39.52;94487.66;5010586;28;19921;-49
2023/02/15 12:37:39;;;;;;;;;;;;;;;12.58;38.99;94480.91;5009859;28;19917;-50
2023/02/15 12:40:19;;;;;;;;;;;;;;;12.94;38.64;94473.53;5009251;28;19917;-48
2023/02/15 12:42:44;;;;;;;;;;;;;;;12.62;39.50;94475.78;5010304;28;19918;-49
2023/02/15 12:45:20;;;;;;;;;;;;;;;11.64;41.03;94471.72;5010348;28;19918;-50
2023/02/15 12:47:45;;;;;;;;;;;;;;;11.94;40.12;94477.69;5010458;28;19936;-49
2023/02/15 12:50:23;;;;;;;;;;;;;;;11.86;40.21;94468.56;5010048;28;20317;-48
2023/02/15 12:52:50;;;;;;;;;;;;;;;11.80;41.21;94471.41;5010000;28;19948;-48
2023/02/15 12:55:25;;;;;;;;;;;;;;;11.84;41.43;94474.63;5009838;28;19917;-47
2023/02/15 12:58:10;;;;;;;;;;;;;;;11.91;40.76;94473.97;5017851;28;19921;-47
2023/02/15 13:00:36;;;;;;;;;;;;;;;11.05;41.65;94478.50;4995844;28;20386;-47
2023/02/15 13:03:02;;;;;;;;;;;;;;;11.20;42.56;94478.75;5010095;28;19932;-48
2023/02/15 13:05:35;;;;;;;;;;;;;;;11.11;42.85;94482.66;5009647;28;20401;-49
2023/02/15 13:08:10;;;;;;;;;;;;;;;10.88;44.15;94478.03;5008542;28;20626;-48
2023/02/15 13:10:37;;;;;;;;;;;;;;;10.84;43.73;94478.34;5009401;28;20690;-47
2023/02/15 13:13:08;;;;;;;;;;;;;;;10.66;43.83;94477.09;5009567;28;20432;-48